Time;durP1;ratioP1;P1;durP2;ratioP2;P2;SDS_P1;SDS_P2;PMS_P1;PMS_P2;Temp;Humidity;BMP_temperature;BMP_pressure;BME280_temperature;BME280_humidity;BME280_pressure;Samples;Min_cycle;Max_cycle;Signal;HPM_P1;HPM_P2
2021/03/11 00:17:46;;;;;;;16.12;10.05;;;;;;;0.38;44.60;100199.00;5093535;27;35442;-91
2021/03/11 00:29:33;;;;;;;19.37;10.77;;;;;;;-0.32;45.41;100192.38;5090550;28;36997;-89
2021/03/11 00:33:24;;;;;;;21.67;11.25;;;;;;;-1.08;47.47;100196.63;5029520;28;20121;-96
2021/03/11 00:41:08;;;;;;;17.58;10.00;;;;;;;-0.62;46.86;100185.56;4999712;28;34355;-96
2021/03/11 00:45:08;;;;;;;18.37;9.85;;;;;;;-0.81;47.13;100186.00;5019272;28;20070;-96
2021/03/11 00:49:04;;;;;;;;;;;;;;;;;;;;;
2021/03/11 00:56:09;;;;;;;16.75;9.38;;;;;;;-1.68;50.11;100190.75;5091802;28;20088;-96
2021/03/11 00:59:45;;;;;;;20.08;10.02;;;;;;;-1.58;50.02;100180.44;5049893;28;34329;-96
2021/03/11 01:02:52;;;;;;;16.17;9.48;;;;;;;-1.17;48.43;100179.50;5099326;27;33479;-96
2021/03/11 01:06:42;;;;;;;16.85;9.02;;;;;;;-1.47;49.31;100180.59;5107167;27;36534;-90
2021/03/11 01:10:34;;;;;;;19.25;10.20;;;;;;;-1.69;50.44;100170.53;5119538;27;36114;-95
2021/03/11 01:13:34;;;;;;;13.88;8.95;;;;;;;-1.81;50.76;100161.56;5098999;28;38199;-89
2021/03/11 01:16:10;;;;;;;15.70;9.43;;;;;;;-1.32;48.87;100160.19;5074365;28;35047;-94
2021/03/11 01:19:14;;;;;;;20.23;10.40;;;;;;;-1.71;49.96;100184.81;5094760;28;34484;-89
2021/03/11 01:22:28;;;;;;;17.40;10.05;;;;;;;-2.04;50.80;100184.19;5105047;28;36230;-89
2021/03/11 01:29:36;;;;;;;14.02;8.73;;;;;;;-2.48;52.39;100174.56;5069167;28;33835;-96
2021/03/11 01:32:37;;;;;;;17.15;9.80;;;;;;;-1.81;51.16;100166.03;5117664;27;34243;-95
2021/03/11 01:35:37;;;;;;;18.35;9.40;;;;;;;-2.14;50.61;100167.19;5119916;28;32444;-88
2021/03/11 01:38:25;;;;;;;17.37;9.75;;;;;;;-3.12;53.41;100169.50;5136838;27;36972;-94
2021/03/11 01:41:30;;;;;;;20.48;10.30;;;;;;;-2.57;52.27;100164.53;5129206;27;35097;-89
2021/03/11 01:44:13;;;;;;;16.60;9.82;;;;;;;-2.64;52.68;100163.19;5123843;28;34156;-88
2021/03/11 01:47:00;;;;;;;17.70;9.52;;;;;;;-2.36;52.13;100152.63;5125533;27;35096;-95
2021/03/11 01:50:19;;;;;;;17.10;9.10;;;;;;;-2.00;51.00;100158.38;5112650;28;34876;-88
2021/03/11 01:53:05;;;;;;;16.45;9.32;;;;;;;-2.19;51.05;100159.50;5119735;27;33751;-95
2021/03/11 01:56:00;;;;;;;19.08;9.80;;;;;;;-2.30;51.24;100156.69;5117844;28;34339;-90
2021/03/11 01:59:06;;;;;;;29.63;9.48;;;;;;;-2.57;51.95;100159.25;5082255;28;34123;-95
2021/03/11 02:02:37;;;;;;;16.48;9.32;;;;;;;-2.27;51.54;100166.25;5088382;28;34606;-95
2021/03/11 02:05:44;;;;;;;21.25;9.55;;;;;;;-2.17;50.92;100162.94;5098724;28;32994;-96
2021/03/11 02:08:45;;;;;;;15.27;8.88;;;;;;;-2.32;51.18;100158.56;5123327;27;33932;-95
2021/03/11 02:11:34;;;;;;;18.30;10.55;;;;;;;-2.06;50.38;100154.31;5106511;28;37075;-88
2021/03/11 02:15:11;;;;;;;15.50;9.15;;;;;;;-2.57;51.90;100149.50;5116691;28;36337;-88
2021/03/11 02:18:28;;;;;;;22.98;9.75;;;;;;;-2.34;51.50;100149.88;5102894;28;34329;-89
2021/03/11 02:21:15;;;;;;;17.95;9.70;;;;;;;-2.67;52.14;100151.84;5090357;28;33674;-90
2021/03/11 02:24:12;;;;;;;15.48;8.65;;;;;;;-2.78;52.28;100143.72;5065756;28;32993;-89
2021/03/11 02:28:08;;;;;;;18.60;8.73;;;;;;;-2.66;51.96;100148.25;5014834;28;34904;-96
2021/03/11 02:31:38;;;;;;;21.80;9.43;;;;;;;-2.70;52.51;100140.59;5023037;28;34720;-89
2021/03/11 02:35:26;;;;;;;18.20;9.57;;;;;;;-2.29;51.14;100147.81;4876847;29;33963;-95
2021/03/11 02:38:29;;;;;;;15.88;9.25;;;;;;;-2.51;51.50;100149.13;4910615;29;33825;-89
2021/03/11 02:41:40;;;;;;;15.63;9.77;;;;;;;-2.72;51.97;100143.34;4922589;29;36609;-96
2021/03/11 02:45:02;;;;;;;;;;;;;;;;;;;;;
2021/03/11 02:48:36;;;;;;;18.98;9.93;;;;;;;-2.45;51.21;100137.31;4909663;29;36500;-89
2021/03/11 02:51:44;;;;;;;16.25;9.20;;;;;;;-2.54;51.59;100132.59;4898462;28;33365;-89
2021/03/11 02:55:03;;;;;;;16.00;9.35;;;;;;;-2.55;51.41;100130.88;4927225;29;34748;-95
2021/03/11 02:58:27;;;;;;;17.80;10.15;;;;;;;-2.92;52.42;100133.97;4929618;28;34281;-95
2021/03/11 03:01:19;;;;;;;16.87;9.65;;;;;;;-2.86;52.27;100130.06;5001145;28;33102;-95
2021/03/11 03:04:47;;;;;;;17.90;10.10;;;;;;;-2.92;52.28;100122.50;5028717;28;34734;-95
2021/03/11 03:07:46;;;;;;;18.70;8.73;;;;;;;-3.40;54.23;100123.53;5093496;28;34647;-93
2021/03/11 03:10:35;;;;;;;20.98;10.35;;;;;;;-3.16;53.56;100125.66;5075690;28;34279;-89
2021/03/11 03:13:43;;;;;;;16.05;10.68;;;;;;;-3.12;53.20;100124.56;5109070;28;32661;-89
2021/03/11 03:16:46;;;;;;;19.77;10.40;;;;;;;-3.05;53.21;100119.78;5118097;28;33743;-96
2021/03/11 03:19:57;;;;;;;16.33;9.20;;;;;;;-3.27;54.02;100128.09;5085470;28;33794;-95
2021/03/11 03:22:57;;;;;;;21.15;11.25;;;;;;;-3.26;53.96;100129.81;5081671;28;32756;-95
2021/03/11 03:26:06;;;;;;;17.90;10.68;;;;;;;-3.24;53.50;100135.84;5088294;28;33707;-94
2021/03/11 03:28:47;;;;;;;17.58;9.65;;;;;;;-3.18;53.51;100143.44;5124055;27;34231;-94
2021/03/11 03:32:05;;;;;;;14.02;9.63;;;;;;;-3.26;53.26;100138.59;5099367;28;35865;-88
2021/03/11 03:35:02;;;;;;;18.75;9.88;;;;;;;-3.37;53.20;100131.28;5109337;28;35776;-95
2021/03/11 03:38:22;;;;;;;19.00;10.38;;;;;;;-3.14;53.36;100117.63;5105176;28;33545;-89
2021/03/11 03:41:13;;;;;;;16.55;9.35;;;;;;;-3.07;52.61;100117.22;5112299;28;35340;-94
2021/03/11 03:44:15;;;;;;;19.45;10.80;;;;;;;-3.10;52.42;100124.47;5106934;28;35627;-88
2021/03/11 03:47:13;;;;;;;17.67;9.82;;;;;;;-3.24;52.62;100123.47;5107477;28;36503;-89
2021/03/11 03:49:55;;;;;;;19.08;8.80;;;;;;;-3.50;53.44;100127.66;5092543;28;33671;-90
2021/03/11 03:52:42;;;;;;;18.52;9.70;;;;;;;-3.88;54.85;100132.47;5095630;28;34834;-96
2021/03/11 03:55:56;;;;;;;15.70;9.93;;;;;;;-3.45;53.71;100130.88;5134924;27;35992;-95
2021/03/11 03:59:22;;;;;;;17.12;8.93;;;;;;;-3.79;54.24;100131.94;5102387;27;34212;-94
2021/03/11 04:02:36;;;;;;;16.77;9.18;;;;;;;-3.56;53.57;100131.50;5133920;27;32864;-88
2021/03/11 04:06:20;;;;;;;15.63;9.50;;;;;;;-3.54;53.30;100134.03;5080440;28;34625;-95
2021/03/11 04:10:06;;;;;;;17.87;9.90;;;;;;;-3.63;53.72;100130.12;5048452;28;33628;-95
2021/03/11 04:13:54;;;;;;;15.93;8.40;;;;;;;-3.70;53.61;100139.34;5075618;28;33744;-95
2021/03/11 04:17:23;;;;;;;16.08;9.43;;;;;;;-3.61;53.22;100137.97;5033515;28;33503;-95
2021/03/11 04:20:20;;;;;;;16.27;9.18;;;;;;;-3.81;53.57;100145.22;5081873;28;33979;-95
2021/03/11 04:23:44;;;;;;;16.98;9.43;;;;;;;-4.04;54.41;100153.56;5070694;28;20132;-91
2021/03/11 04:27:41;;;;;;;;;;;;;;;;;;;;;
2021/03/11 04:31:28;;;;;;;20.05;10.30;;;;;;;-4.18;54.79;100141.97;4940561;29;33363;-89
2021/03/11 04:34:39;;;;;;;19.60;10.18;;;;;;;-4.32;55.59;100147.16;4932130;28;33897;-95
2021/03/11 04:38:26;;;;;;;19.50;9.57;;;;;;;-3.92;54.26;100134.44;4965014;28;33884;-95
2021/03/11 04:41:18;;;;;;;17.92;8.70;;;;;;;-4.22;54.92;100140.47;4955402;28;34255;-95
2021/03/11 04:44:39;;;;;;;;;;;;;;;;;;;;;
2021/03/11 04:48:14;;;;;;;17.45;9.48;;;;;;;-3.88;53.76;100130.66;5035292;28;34512;-89
2021/03/11 04:51:26;;;;;;;20.27;10.43;;;;;;;-4.01;54.67;100127.88;5082369;27;34317;-90
2021/03/11 04:54:46;;;;;;;18.45;9.20;;;;;;;-4.02;54.57;100130.59;5113906;28;33113;-89
2021/03/11 04:57:33;;;;;;;14.82;9.30;;;;;;;-4.14;54.94;100135.59;5135851;27;33909;-89
2021/03/11 05:00:53;;;;;;;;;;;;;;;;;;;;;
2021/03/11 05:03:45;;;;;;;21.02;10.75;;;;;;;-4.03;55.21;100134.16;5176844;27;33063;-91
2021/03/11 05:06:20;;;;;;;19.20;10.75;;;;;;;-4.01;55.47;100127.00;5197119;27;33156;-91
2021/03/11 05:08:55;;;;;;;18.33;9.60;;;;;;;-3.74;54.52;100124.63;5204029;27;33291;-88
2021/03/11 05:11:31;;;;;;;17.80;10.32;;;;;;;-3.88;54.59;100125.37;5212320;27;33222;-91
2021/03/11 05:14:03;;;;;;;21.75;10.80;;;;;;;-4.01;54.92;100141.06;5209604;27;33714;-91
2021/03/11 05:16:44;;;;;;;18.50;10.20;;;;;;;-4.03;54.90;100139.44;5210953;27;35893;-91
2021/03/11 05:19:38;;;;;;;19.15;10.30;;;;;;;-3.72;54.20;100128.00;5198725;27;33669;-89
2021/03/11 05:22:11;;;;;;;21.20;8.70;;;;;;;-3.97;54.45;100126.72;5193706;27;35439;-89
2021/03/11 05:24:43;;;;;;;18.90;10.55;;;;;;;-3.86;54.12;100131.44;5209734;27;34240;-91
2021/03/11 05:27:19;;;;;;;17.73;11.25;;;;;;;-4.13;54.81;100139.94;5191517;27;34445;-89
2021/03/11 05:29:53;;;;;;;19.05;10.55;;;;;;;-3.85;54.28;100127.00;5190129;27;34256;-89
2021/03/11 05:32:28;;;;;;;20.00;11.52;;;;;;;-4.33;56.15;100137.53;5207971;27;35514;-89
2021/03/11 05:35:01;;;;;;;18.75;10.05;;;;;;;-3.83;54.98;100131.28;5210666;27;33897;-90
2021/03/11 05:37:37;;;;;;;20.35;11.20;;;;;;;-3.80;55.15;100141.66;5174746;27;34401;-92
2021/03/11 05:40:14;;;;;;;19.27;9.85;;;;;;;-4.00;56.06;100144.56;5143475;27;33460;-89
2021/03/11 05:42:50;;;;;;;17.75;10.20;;;;;;;-4.16;57.09;100150.69;5192880;27;34291;-92
2021/03/11 05:45:31;;;;;;;21.37;10.13;;;;;;;-3.87;56.30;100150.84;5191342;27;35646;-90
2021/03/11 05:48:05;;;;;;;19.75;9.98;;;;;;;-3.30;54.92;100145.00;5190249;27;34583;-92
2021/03/11 05:50:42;;;;;;;18.00;10.10;;;;;;;-3.32;55.21;100151.31;5204947;27;34150;-93
2021/03/11 05:53:28;;;;;;;20.95;10.85;;;;;;;-3.00;54.53;100149.44;5192869;27;37333;-89
2021/03/11 05:56:11;;;;;;;19.80;10.48;;;;;;;-2.94;54.78;100141.13;5178368;27;33983;-93
2021/03/11 05:59:09;;;;;;;18.75;10.85;;;;;;;-2.73;54.21;100141.63;5190407;27;32989;-93
2021/03/11 06:01:53;;;;;;;23.77;11.65;;;;;;;-2.84;55.00;100142.28;5173585;27;33871;-93
2021/03/11 06:04:36;;;;;;;21.02;12.00;;;;;;;-2.72;54.74;100145.97;5176023;27;32613;-91
2021/03/11 06:07:11;;;;;;;21.58;12.37;;;;;;;-2.50;55.00;100147.31;5142966;27;420395;-90
2021/03/11 06:10:02;;;;;;;22.65;11.65;;;;;;;-2.37;54.97;100150.91;5201897;27;35502;-90
2021/03/11 06:12:39;;;;;;;20.20;11.05;;;;;;;-2.08;54.65;100150.91;5193545;27;34239;-90
2021/03/11 06:15:33;;;;;;;20.73;10.90;;;;;;;-1.94;54.26;100142.09;5175193;27;33316;-90
2021/03/11 06:18:20;;;;;;;22.52;12.13;;;;;;;-1.71;53.88;100151.19;5210291;27;33262;-93
2021/03/11 06:20:56;;;;;;;20.90;13.18;;;;;;;-1.39;53.56;100135.03;5159532;27;34092;-93
2021/03/11 06:23:38;;;;;;;19.48;12.00;;;;;;;-1.30;53.93;100139.72;5193110;27;33418;-91
2021/03/11 06:26:14;;;;;;;25.15;13.30;;;;;;;-1.17;53.75;100145.03;5193782;27;32726;-93
2021/03/11 06:28:50;;;;;;;24.37;14.18;;;;;;;-1.15;54.74;100150.25;5174091;27;33385;-91
2021/03/11 06:31:25;;;;;;;24.27;13.90;;;;;;;-0.77;54.22;100154.78;5205952;27;33637;-93
2021/03/11 06:34:34;;;;;;;26.85;14.82;;;;;;;-0.57;54.53;100142.78;5195166;27;35455;-90
2021/03/11 06:38:16;;;;;;;26.30;14.10;;;;;;;-0.21;53.47;100135.84;5185858;27;33114;-93
2021/03/11 06:41:13;;;;;;;28.58;16.42;;;;;;;0.30;52.56;100145.50;5144728;27;34210;-89
2021/03/11 06:44:23;;;;;;;29.12;15.95;;;;;;;0.16;54.03;100150.03;5163600;27;36204;-95
2021/03/11 06:47:36;;;;;;;30.42;16.10;;;;;;;0.68;52.66;100144.50;5161806;27;33130;-90
2021/03/11 06:50:50;;;;;;;22.85;13.07;;;;;;;0.61;50.90;100143.25;5083045;28;34256;-90
2021/03/11 06:54:10;;;;;;;24.20;13.38;;;;;;;0.66;50.41;100151.75;5202096;27;20452;-90
2021/03/11 06:57:30;;;;;;;24.02;14.20;;;;;;;1.05;49.02;100152.41;5180979;27;34458;-92
2021/03/11 07:09:59;;;;;;;;;;;;;;;;;;;;;
2021/03/11 07:14:20;;;;;;;;;;;;;;;;;;;;;
2021/03/11 14:25:35;;;;;;;25.50;12.88;;;;;;;10.35;28.01;99600.22;5204371;27;35278;-92
2021/03/11 17:18:59;;;;;;;;;;;;;;;;;;;;;
2021/03/11 17:42:26;;;;;;;;;;;;;;;;;;;;;
2021/03/11 17:57:27;;;;;;;30.37;15.40;;;;;;;9.82;31.90;99357.41;5236732;27;20125;-90
2021/03/11 18:17:47;;;;;;;28.70;14.70;;;;;;;10.21;31.58;99385.84;5052163;28;35092;-91
2021/03/11 18:49:38;;;;;;;;;;;;;;;;;;;;;
2021/03/11 20:25:52;;;;;;;27.42;13.93;;;;;;;10.20;33.66;99268.03;5250889;27;20132;-90
2021/03/11 20:30:53;;;;;;;;;;;;;;;;;;;;;
2021/03/11 21:13:32;;;;;;;22.05;13.55;;;;;;;8.60;36.42;99181.81;5206638;27;20133;-91
2021/03/11 21:20:33;;;;;;;24.58;14.02;;;;;;;9.32;34.81;99147.72;5186047;27;20067;-90
2021/03/11 21:24:50;;;;;;;23.73;14.57;;;;;;;9.17;35.03;99150.50;5103253;27;34331;-91
2021/03/11 22:37:33;;;;;;;25.15;14.60;;;;;;;8.94;35.47;99042.88;5094613;28;20128;-92
2021/03/11 22:50:33;;;;;;;23.08;13.38;;;;;;;8.77;36.27;99033.41;5080779;28;34350;-91
2021/03/11 22:55:19;;;;;;;25.42;13.68;;;;;;;8.94;35.95;99021.31;5014771;28;35477;-93
2021/03/11 23:04:03;;;;;;;22.58;13.70;;;;;;;9.13;35.92;98997.41;4991797;28;34317;-92
2021/03/11 23:07:53;;;;;;;22.67;13.55;;;;;;;9.28;35.46;98984.69;5026739;28;35024;-92
2021/03/11 23:16:07;;;;;;;;;;;;;;;;;;;;;
2021/03/11 23:20:30;;;;;;;24.70;14.07;;;;;;;9.07;36.16;98979.31;5191288;27;34367;-91
2021/03/11 23:32:56;;;;;;;27.98;15.73;;;;;;;9.69;35.79;98983.84;5040962;28;33952;-90
